Main page
Satellite images 10-day forecastsClimateMarine weather Cyclones Lightning AirportsFAQ Newsletter About
Weather : Europe Africa North America South America Asia Australia-Oceania Others
Languages Contact

Bauru, São Paulo, Brazil

Bauru Airport

latitude: 22-19S, longitude: 049-04W, elevation: 590 m


METAR: SBBU 261300Z 10007KT CAVOK 25/21 Q1021
TAF: SBBU 261030Z 2612/2624 10005KT 9999 FEW040 TN21/2612Z TX31/2617Z PROB40 2612/2613 SCT008 RMK PEL

Time: 10:30 (13:30 UTC)

Current weather observation

The report was made 30 minutes ago, at 13:00 UTC
Wind 7 kt from the East
Temperature 25°C
Humidity 79%
Pressure 1021 hPa
Visibility 10 km or more
no clouds below 1500 m and no cumulonimbus

Change units

Forecast

The report was made 3 hours and 0 minutes ago, at 10:30 UTC
Forecast valid from 26 at 12 UTC to 26 at 24 UTC
Wind 5 kt from the East
Visibility 10 km or more
Few clouds at a height of 4000 ft
Probability 40%
from 26 at 12 UTC to 26 at 13 UTC
Scattered clouds at a height of 800 ft
The information on this site is subject to a disclaimer
Weather : Europe Africa North America South America Asia Australia-Oceania Others
Satellite images 10-day forecastsClimateMarine weather Cyclones Lightning AirportsFAQ Languages Contact Newsletter About